sensor_id;sensor_type;location;lat;lon;timestamp;temperature;humidity
62476;DHT22;50739;45.670;11.936;2023-03-17T00:03:32;8.01;70.08
62476;DHT22;50739;45.670;11.936;2023-03-17T00:08:38;7.94;71.01
62476;DHT22;50739;45.670;11.936;2023-03-17T00:13:40;7.74;71.75
62476;DHT22;50739;45.670;11.936;2023-03-17T00:18:43;7.82;71.47
62476;DHT22;50739;45.670;11.936;2023-03-17T00:23:49;8.01;70.78
62476;DHT22;50739;45.670;11.936;2023-03-17T00:28:52;7.87;71.03
62476;DHT22;50739;45.670;11.936;2023-03-17T00:33:55;7.83;71.14
62476;DHT22;50739;45.670;11.936;2023-03-17T00:38:59;7.72;71.51
62476;DHT22;50739;45.670;11.936;2023-03-17T00:44:01;7.56;72.89
62476;DHT22;50739;45.670;11.936;2023-03-17T00:49:11;7.67;72.78
62476;DHT22;50739;45.670;11.936;2023-03-17T00:54:17;7.59;72.70
62476;DHT22;50739;45.670;11.936;2023-03-17T00:59:24;7.45;72.99
62476;DHT22;50739;45.670;11.936;2023-03-17T01:04:26;7.48;72.82
62476;DHT22;50739;45.670;11.936;2023-03-17T01:09:30;7.15;73.78
62476;DHT22;50739;45.670;11.936;2023-03-17T01:14:33;7.11;73.64
62476;DHT22;50739;45.670;11.936;2023-03-17T01:19:35;7.10;73.35
62476;DHT22;50739;45.670;11.936;2023-03-17T01:24:38;7.07;72.98
62476;DHT22;50739;45.670;11.936;2023-03-17T01:29:40;7.11;73.50
62476;DHT22;50739;45.670;11.936;2023-03-17T01:34:42;7.15;74.11
62476;DHT22;50739;45.670;11.936;2023-03-17T01:39:46;7.07;74.36
62476;DHT22;50739;45.670;11.936;2023-03-17T01:44:56;6.87;75.45
62476;DHT22;50739;45.670;11.936;2023-03-17T01:50:02;6.81;75.42
62476;DHT22;50739;45.670;11.936;2023-03-17T01:55:09;6.80;75.95
62476;DHT22;50739;45.670;11.936;2023-03-17T02:00:15;6.90;75.08
62476;DHT22;50739;45.670;11.936;2023-03-17T02:05:21;7.00;74.93
62476;DHT22;50739;45.670;11.936;2023-03-17T02:10:26;6.76;76.38
62476;DHT22;50739;45.670;11.936;2023-03-17T02:15:36;6.83;76.08
62476;DHT22;50739;45.670;11.936;2023-03-17T02:26:24;6.97;75.46
62476;DHT22;50739;45.670;11.936;2023-03-17T02:31:27;6.96;74.96
62476;DHT22;50739;45.670;11.936;2023-03-17T02:36:29;6.90;74.84
62476;DHT22;50739;45.670;11.936;2023-03-17T02:41:33;6.86;75.15
62476;DHT22;50739;45.670;11.936;2023-03-17T02:46:35;6.72;76.30
62476;DHT22;50739;45.670;11.936;2023-03-17T02:51:37;6.53;76.09
62476;DHT22;50739;45.670;11.936;2023-03-17T02:56:41;6.72;75.22
62476;DHT22;50739;45.670;11.936;2023-03-17T03:01:42;6.54;76.01
62476;DHT22;50739;45.670;11.936;2023-03-17T03:06:45;6.53;76.35
62476;DHT22;50739;45.670;11.936;2023-03-17T03:11:48;6.52;76.39
62476;DHT22;50739;45.670;11.936;2023-03-17T03:16:50;6.38;75.90
62476;DHT22;50739;45.670;11.936;2023-03-17T03:21:52;6.26;75.26
62476;DHT22;50739;45.670;11.936;2023-03-17T03:26:56;6.22;75.21
62476;DHT22;50739;45.670;11.936;2023-03-17T03:31:57;6.21;75.82
62476;DHT22;50739;45.670;11.936;2023-03-17T03:37:00;6.17;75.25
62476;DHT22;50739;45.670;11.936;2023-03-17T03:42:03;6.49;74.70
62476;DHT22;50739;45.670;11.936;2023-03-17T03:47:06;6.05;75.89
62476;DHT22;50739;45.670;11.936;2023-03-17T03:52:08;6.04;75.92
62476;DHT22;50739;45.670;11.936;2023-03-17T03:57:11;6.17;75.09
62476;DHT22;50739;45.670;11.936;2023-03-17T04:02:13;6.28;74.65
62476;DHT22;50739;45.670;11.936;2023-03-17T04:07:16;6.21;74.76
62476;DHT22;50739;45.670;11.936;2023-03-17T04:12:19;6.21;74.56
62476;DHT22;50739;45.670;11.936;2023-03-17T04:17:21;6.13;74.32
62476;DHT22;50739;45.670;11.936;2023-03-17T04:22:23;5.94;74.96
62476;DHT22;50739;45.670;11.936;2023-03-17T04:27:27;6.01;75.00
62476;DHT22;50739;45.670;11.936;2023-03-17T04:32:29;6.07;74.69
62476;DHT22;50739;45.670;11.936;2023-03-17T04:37:31;6.14;74.37
62476;DHT22;50739;45.670;11.936;2023-03-17T04:42:34;6.00;74.89
62476;DHT22;50739;45.670;11.936;2023-03-17T04:47:36;6.00;74.95
62476;DHT22;50739;45.670;11.936;2023-03-17T04:52:39;5.96;75.04
62476;DHT22;50739;45.670;11.936;2023-03-17T04:57:42;6.03;74.84
62476;DHT22;50739;45.670;11.936;2023-03-17T05:02:44;6.00;74.82
62476;DHT22;50739;45.670;11.936;2023-03-17T05:07:46;5.83;75.81
62476;DHT22;50739;45.670;11.936;2023-03-17T05:12:50;5.76;75.82
62476;DHT22;50739;45.670;11.936;2023-03-17T05:17:51;5.91;75.83
62476;DHT22;50739;45.670;11.936;2023-03-17T05:22:53;5.69;76.43
62476;DHT22;50739;45.670;11.936;2023-03-17T05:27:56;5.74;76.53
62476;DHT22;50739;45.670;11.936;2023-03-17T05:32:59;5.67;76.51
62476;DHT22;50739;45.670;11.936;2023-03-17T05:38:01;5.71;76.95
62476;DHT22;50739;45.670;11.936;2023-03-17T05:43:05;5.77;77.12
62476;DHT22;50739;45.670;11.936;2023-03-17T05:48:07;5.74;76.98
62476;DHT22;50739;45.670;11.936;2023-03-17T05:53:09;5.74;77.04
62476;DHT22;50739;45.670;11.936;2023-03-17T05:58:12;5.81;77.07
62476;DHT22;50739;45.670;11.936;2023-03-17T06:03:15;5.89;76.93
62476;DHT22;50739;45.670;11.936;2023-03-17T06:08:17;5.89;77.04
62476;DHT22;50739;45.670;11.936;2023-03-17T06:13:21;6.21;75.99
62476;DHT22;50739;45.670;11.936;2023-03-17T06:18:23;6.17;76.04
62476;DHT22;50739;45.670;11.936;2023-03-17T06:29:03;6.53;74.92
62476;DHT22;50739;45.670;11.936;2023-03-17T06:34:05;6.60;74.44
62476;DHT22;50739;45.670;11.936;2023-03-17T06:39:07;6.73;74.24
62476;DHT22;50739;45.670;11.936;2023-03-17T06:44:11;6.87;73.78
62476;DHT22;50739;45.670;11.936;2023-03-17T06:49:14;6.89;73.24
62476;DHT22;50739;45.670;11.936;2023-03-17T06:54:16;7.04;72.87
62476;DHT22;50739;45.670;11.936;2023-03-17T06:59:21;7.25;72.41
62476;DHT22;50739;45.670;11.936;2023-03-17T07:04:23;7.42;71.31
62476;DHT22;50739;45.670;11.936;2023-03-17T07:09:25;7.62;71.45
62476;DHT22;50739;45.670;11.936;2023-03-17T07:14:30;7.73;71.12
62476;DHT22;50739;45.670;11.936;2023-03-17T07:19:32;7.89;71.06
62476;DHT22;50739;45.670;11.936;2023-03-17T07:24:34;8.17;68.42
62476;DHT22;50739;45.670;11.936;2023-03-17T07:29:38;8.28;68.87
62476;DHT22;50739;45.670;11.936;2023-03-17T07:34:40;8.44;69.25
62476;DHT22;50739;45.670;11.936;2023-03-17T07:39:42;8.55;68.07
62476;DHT22;50739;45.670;11.936;2023-03-17T07:44:48;8.69;68.78
62476;DHT22;50739;45.670;11.936;2023-03-17T07:49:50;8.79;68.49
62476;DHT22;50739;45.670;11.936;2023-03-17T07:54:52;8.93;67.79
62476;DHT22;50739;45.670;11.936;2023-03-17T07:59:56;9.06;67.74
62476;DHT22;50739;45.670;11.936;2023-03-17T08:04:59;9.28;67.12
62476;DHT22;50739;45.670;11.936;2023-03-17T08:10:01;9.41;66.14
62476;DHT22;50739;45.670;11.936;2023-03-17T08:15:05;9.55;66.61
62476;DHT22;50739;45.670;11.936;2023-03-17T08:20:10;9.58;67.19
62476;DHT22;50739;45.670;11.936;2023-03-17T08:25:12;9.73;67.30
62476;DHT22;50739;45.670;11.936;2023-03-17T08:30:16;9.79;67.24
62476;DHT22;50739;45.670;11.936;2023-03-17T08:35:18;9.89;66.80
62476;DHT22;50739;45.670;11.936;2023-03-17T08:40:20;9.94;65.62
62476;DHT22;50739;45.670;11.936;2023-03-17T08:45:23;10.07;66.10
62476;DHT22;50739;45.670;11.936;2023-03-17T08:50:26;10.10;65.76
62476;DHT22;50739;45.670;11.936;2023-03-17T08:55:28;10.20;64.63
62476;DHT22;50739;45.670;11.936;2023-03-17T09:00:32;10.18;65.09
62476;DHT22;50739;45.670;11.936;2023-03-17T09:05:34;10.22;63.67
62476;DHT22;50739;45.670;11.936;2023-03-17T09:10:36;10.35;62.35
62476;DHT22;50739;45.670;11.936;2023-03-17T09:15:39;10.33;62.37
62476;DHT22;50739;45.670;11.936;2023-03-17T09:20:41;10.54;60.68
62476;DHT22;50739;45.670;11.936;2023-03-17T09:25:43;10.58;59.45
62476;DHT22;50739;45.670;11.936;2023-03-17T09:30:46;10.64;59.01
62476;DHT22;50739;45.670;11.936;2023-03-17T09:35:50;10.89;57.43
62476;DHT22;50739;45.670;11.936;2023-03-17T09:40:56;11.09;56.56
62476;DHT22;50739;45.670;11.936;2023-03-17T09:46:07;10.99;55.61
62476;DHT22;50739;45.670;11.936;2023-03-17T09:51:17;11.17;54.95
62476;DHT22;50739;45.670;11.936;2023-03-17T09:56:19;11.30;55.15
62476;DHT22;50739;45.670;11.936;2023-03-17T10:01:23;11.40;52.57
62476;DHT22;50739;45.670;11.936;2023-03-17T10:06:36;11.37;50.13
62476;DHT22;50739;45.670;11.936;2023-03-17T10:11:41;11.38;51.12
62476;DHT22;50739;45.670;11.936;2023-03-17T10:16:50;11.40;52.13
62476;DHT22;50739;45.670;11.936;2023-03-17T10:21:57;11.50;51.33
62476;DHT22;50739;45.670;11.936;2023-03-17T10:27:02;11.51;52.41
62476;DHT22;50739;45.670;11.936;2023-03-17T10:32:08;11.62;52.50
62476;DHT22;50739;45.670;11.936;2023-03-17T10:37:14;11.92;49.80
62476;DHT22;50739;45.670;11.936;2023-03-17T10:42:22;12.05;51.95
62476;DHT22;50739;45.670;11.936;2023-03-17T10:47:29;12.19;48.21
62476;DHT22;50739;45.670;11.936;2023-03-17T10:52:37;12.13;48.91
62476;DHT22;50739;45.670;11.936;2023-03-17T10:57:48;12.20;49.71
62476;DHT22;50739;45.670;11.936;2023-03-17T11:02:56;12.10;49.01
62476;DHT22;50739;45.670;11.936;2023-03-17T11:08:07;12.19;48.28
62476;DHT22;50739;45.670;11.936;2023-03-17T11:13:14;12.22;48.02
62476;DHT22;50739;45.670;11.936;2023-03-17T11:18:20;12.33;47.67
62476;DHT22;50739;45.670;11.936;2023-03-17T11:23:37;12.47;48.96
62476;DHT22;50739;45.670;11.936;2023-03-17T11:28:49;12.57;47.91
62476;DHT22;50739;45.670;11.936;2023-03-17T11:34:01;12.64;49.76
62476;DHT22;50739;45.670;11.936;2023-03-17T11:39:10;12.71;50.11
62476;DHT22;50739;45.670;11.936;2023-03-17T11:44:46;12.98;46.09
62476;DHT22;50739;45.670;11.936;2023-03-17T11:50:02;12.96;47.31
62476;DHT22;50739;45.670;11.936;2023-03-17T11:55:12;12.93;46.86
62476;DHT22;50739;45.670;11.936;2023-03-17T12:00:19;12.93;46.13
62476;DHT22;50739;45.670;11.936;2023-03-17T12:05:25;12.99;48.68
62476;DHT22;50739;45.670;11.936;2023-03-17T12:10:29;13.17;47.07
62476;DHT22;50739;45.670;11.936;2023-03-17T12:15:38;13.26;48.93
62476;DHT22;50739;45.670;11.936;2023-03-17T12:20:50;13.27;47.20
62476;DHT22;50739;45.670;11.936;2023-03-17T12:25:57;13.34;50.74
62476;DHT22;50739;45.670;11.936;2023-03-17T12:31:06;13.48;48.48
62476;DHT22;50739;45.670;11.936;2023-03-17T12:36:13;13.89;46.02
62476;DHT22;50739;45.670;11.936;2023-03-17T12:41:40;13.82;45.38
62476;DHT22;50739;45.670;11.936;2023-03-17T12:47:06;14.02;47.55
62476;DHT22;50739;45.670;11.936;2023-03-17T12:52:27;14.01;44.69
62476;DHT22;50739;45.670;11.936;2023-03-17T12:57:38;14.19;46.45
62476;DHT22;50739;45.670;11.936;2023-03-17T13:02:45;14.53;44.46
62476;DHT22;50739;45.670;11.936;2023-03-17T13:07:53;14.98;44.10
62476;DHT22;50739;45.670;11.936;2023-03-17T13:13:14;15.36;43.99
62476;DHT22;50739;45.670;11.936;2023-03-17T13:18:49;15.77;42.55
62476;DHT22;50739;45.670;11.936;2023-03-17T13:23:57;16.23;41.56
62476;DHT22;50739;45.670;11.936;2023-03-17T13:29:01;16.33;42.45
62476;DHT22;50739;45.670;11.936;2023-03-17T13:34:15;16.45;40.96
62476;DHT22;50739;45.670;11.936;2023-03-17T13:39:46;16.67;40.26
62476;DHT22;50739;45.670;11.936;2023-03-17T13:45:14;16.71;39.48
62476;DHT22;50739;45.670;11.936;2023-03-17T13:50:21;16.36;39.96
62476;DHT22;50739;45.670;11.936;2023-03-17T13:55:36;16.32;40.02
62476;DHT22;50739;45.670;11.936;2023-03-17T14:00:40;16.91;40.62
62476;DHT22;50739;45.670;11.936;2023-03-17T14:05:46;16.90;40.79
62476;DHT22;50739;45.670;11.936;2023-03-17T14:10:53;16.46;40.31
62476;DHT22;50739;45.670;11.936;2023-03-17T14:16:00;16.29;40.60
62476;DHT22;50739;45.670;11.936;2023-03-17T14:21:05;16.09;39.70
62476;DHT22;50739;45.670;11.936;2023-03-17T14:26:10;16.46;41.30
62476;DHT22;50739;45.670;11.936;2023-03-17T14:31:20;16.29;39.56
62476;DHT22;50739;45.670;11.936;2023-03-17T14:36:23;16.35;39.64
62476;DHT22;50739;45.670;11.936;2023-03-17T14:41:29;16.11;39.95
62476;DHT22;50739;45.670;11.936;2023-03-17T14:46:34;16.06;41.79
62476;DHT22;50739;45.670;11.936;2023-03-17T14:51:39;16.35;42.06
62476;DHT22;50739;45.670;11.936;2023-03-17T14:56:46;16.57;39.70
62476;DHT22;50739;45.670;11.936;2023-03-17T15:01:52;16.62;41.11
62476;DHT22;50739;45.670;11.936;2023-03-17T15:06:57;16.69;40.12
62476;DHT22;50739;45.670;11.936;2023-03-17T15:12:03;16.81;39.70
62476;DHT22;50739;45.670;11.936;2023-03-17T15:17:16;16.69;41.02
62476;DHT22;50739;45.670;11.936;2023-03-17T15:22:21;16.91;39.07
62476;DHT22;50739;45.670;11.936;2023-03-17T15:27:26;16.92;39.38
62476;DHT22;50739;45.670;11.936;2023-03-17T15:32:28;16.97;39.43
62476;DHT22;50739;45.670;11.936;2023-03-17T15:37:32;16.64;39.09
62476;DHT22;50739;45.670;11.936;2023-03-17T15:42:37;16.60;39.53
62476;DHT22;50739;45.670;11.936;2023-03-17T15:47:39;16.67;38.96
62476;DHT22;50739;45.670;11.936;2023-03-17T15:52:43;16.56;40.44
62476;DHT22;50739;45.670;11.936;2023-03-17T15:57:46;17.07;38.94
62476;DHT22;50739;45.670;11.936;2023-03-17T16:02:50;17.10;39.79
62476;DHT22;50739;45.670;11.936;2023-03-17T16:07:53;16.70;40.21
62476;DHT22;50739;45.670;11.936;2023-03-17T16:12:56;16.28;40.75
62476;DHT22;50739;45.670;11.936;2023-03-17T16:18:00;16.08;42.16
62476;DHT22;50739;45.670;11.936;2023-03-17T16:23:06;15.90;40.83
62476;DHT22;50739;45.670;11.936;2023-03-17T16:28:14;15.54;44.06
62476;DHT22;50739;45.670;11.936;2023-03-17T16:33:18;15.33;43.48
62476;DHT22;50739;45.670;11.936;2023-03-17T16:38:22;15.01;43.75
62476;DHT22;50739;45.670;11.936;2023-03-17T16:43:27;15.02;43.72
62476;DHT22;50739;45.670;11.936;2023-03-17T16:48:30;14.75;44.71
62476;DHT22;50739;45.670;11.936;2023-03-17T16:53:32;14.57;50.04
62476;DHT22;50739;45.670;11.936;2023-03-17T16:58:35;14.39;54.09
62476;DHT22;50739;45.670;11.936;2023-03-17T17:03:37;14.13;55.31
62476;DHT22;50739;45.670;11.936;2023-03-17T17:08:40;14.04;55.82
62476;DHT22;50739;45.670;11.936;2023-03-17T17:13:46;14.04;57.26
62476;DHT22;50739;45.670;11.936;2023-03-17T17:18:48;13.89;56.52
62476;DHT22;50739;45.670;11.936;2023-03-17T17:23:50;13.91;57.29
62476;DHT22;50739;45.670;11.936;2023-03-17T17:28:54;13.54;57.92
62476;DHT22;50739;45.670;11.936;2023-03-17T17:33:56;13.43;58.98
62476;DHT22;50739;45.670;11.936;2023-03-17T17:38:58;13.32;58.81
62476;DHT22;50739;45.670;11.936;2023-03-17T17:44:02;13.00;60.18
62476;DHT22;50739;45.670;11.936;2023-03-17T17:49:04;13.07;59.70
62476;DHT22;50739;45.670;11.936;2023-03-17T17:54:07;13.05;58.91
62476;DHT22;50739;45.670;11.936;2023-03-17T17:59:11;12.96;59.05
62476;DHT22;50739;45.670;11.936;2023-03-17T18:04:12;12.92;59.38
62476;DHT22;50739;45.670;11.936;2023-03-17T18:09:14;12.77;59.72
62476;DHT22;50739;45.670;11.936;2023-03-17T18:14:18;12.69;60.14
62476;DHT22;50739;45.670;11.936;2023-03-17T18:19:21;12.54;60.32
62476;DHT22;50739;45.670;11.936;2023-03-17T18:24:22;12.48;60.77
62476;DHT22;50739;45.670;11.936;2023-03-17T18:29:26;12.30;60.81
62476;DHT22;50739;45.670;11.936;2023-03-17T18:34:30;12.31;60.49
62476;DHT22;50739;45.670;11.936;2023-03-17T18:39:33;12.17;61.29
62476;DHT22;50739;45.670;11.936;2023-03-17T18:44:37;12.17;60.79
62476;DHT22;50739;45.670;11.936;2023-03-17T18:49:39;12.00;60.06
62476;DHT22;50739;45.670;11.936;2023-03-17T18:54:41;11.90;60.28
62476;DHT22;50739;45.670;11.936;2023-03-17T18:59:47;11.90;60.17
62476;DHT22;50739;45.670;11.936;2023-03-17T19:04:49;11.86;60.26
62476;DHT22;50739;45.670;11.936;2023-03-17T19:09:50;11.67;60.26
62476;DHT22;50739;45.670;11.936;2023-03-17T19:14:54;11.74;60.57
62476;DHT22;50739;45.670;11.936;2023-03-17T19:19:56;11.69;60.40
62476;DHT22;50739;45.670;11.936;2023-03-17T19:24:58;11.52;60.93
62476;DHT22;50739;45.670;11.936;2023-03-17T19:30:01;11.42;60.82
62476;DHT22;50739;45.670;11.936;2023-03-17T19:35:03;11.41;61.27
62476;DHT22;50739;45.670;11.936;2023-03-17T19:40:08;11.27;62.09
62476;DHT22;50739;45.670;11.936;2023-03-17T19:45:12;11.27;61.53
62476;DHT22;50739;45.670;11.936;2023-03-17T19:50:14;11.13;62.09
62476;DHT22;50739;45.670;11.936;2023-03-17T19:55:15;11.17;62.29
62476;DHT22;50739;45.670;11.936;2023-03-17T20:00:20;11.17;62.71
62476;DHT22;50739;45.670;11.936;2023-03-17T20:05:22;11.10;63.14
62476;DHT22;50739;45.670;11.936;2023-03-17T20:10:23;11.10;62.14
62476;DHT22;50739;45.670;11.936;2023-03-17T20:15:27;11.04;62.07
62476;DHT22;50739;45.670;11.936;2023-03-17T20:20:29;10.84;62.88
62476;DHT22;50739;45.670;11.936;2023-03-17T20:25:31;10.97;62.84
62476;DHT22;50739;45.670;11.936;2023-03-17T20:30:35;10.89;63.30
62476;DHT22;50739;45.670;11.936;2023-03-17T21:56:14;9.87;69.68
62476;DHT22;50739;45.670;11.936;2023-03-17T22:01:17;9.73;69.36
62476;DHT22;50739;45.670;11.936;2023-03-17T22:06:20;9.85;69.29
62476;DHT22;50739;45.670;11.936;2023-03-17T22:11:25;9.82;70.14
62476;DHT22;50739;45.670;11.936;2023-03-17T22:16:27;9.71;69.34
62476;DHT22;50739;45.670;11.936;2023-03-17T22:21:28;9.55;70.91
62476;DHT22;50739;45.670;11.936;2023-03-17T22:26:34;9.58;70.50
62476;DHT22;50739;45.670;11.936;2023-03-17T22:31:36;9.46;71.62
62476;DHT22;50739;45.670;11.936;2023-03-17T22:36:38;9.32;71.86
62476;DHT22;50739;45.670;11.936;2023-03-17T22:41:42;9.30;71.99
62476;DHT22;50739;45.670;11.936;2023-03-17T22:46:44;9.32;72.95
62476;DHT22;50739;45.670;11.936;2023-03-17T22:51:46;9.23;72.51
62476;DHT22;50739;45.670;11.936;2023-03-17T22:56:50;9.32;72.53
62476;DHT22;50739;45.670;11.936;2023-03-17T23:01:52;9.15;73.65
62476;DHT22;50739;45.670;11.936;2023-03-17T23:06:54;9.17;72.97
62476;DHT22;50739;45.670;11.936;2023-03-17T23:11:57;9.13;73.16
62476;DHT22;50739;45.670;11.936;2023-03-17T23:16:59;9.10;73.22
62476;DHT22;50739;45.670;11.936;2023-03-17T23:22:01;8.88;73.86
62476;DHT22;50739;45.670;11.936;2023-03-17T23:27:05;8.90;74.36
62476;DHT22;50739;45.670;11.936;2023-03-17T23:32:09;8.90;74.45
62476;DHT22;50739;45.670;11.936;2023-03-17T23:37:11;8.86;74.48
62476;DHT22;50739;45.670;11.936;2023-03-17T23:42:15;8.87;74.54
62476;DHT22;50739;45.670;11.936;2023-03-17T23:47:17;8.72;74.26
62476;DHT22;50739;45.670;11.936;2023-03-17T23:52:20;8.76;74.36
62476;DHT22;50739;45.670;11.936;2023-03-17T23:57:24;8.72;75.47
